createdAt,value
2023-03-26T00:01:26.863Z,7.20
2023-03-26T00:03:55.324Z,7.20
2023-03-26T00:06:25.153Z,7.20
2023-03-26T00:08:53.411Z,7.20
2023-03-26T00:11:22.322Z,7.20
2023-03-26T00:13:49.767Z,7.20
2023-03-26T00:16:19.999Z,7.20
2023-03-26T00:18:49.220Z,7.20
2023-03-26T00:21:20.970Z,7.20
2023-03-26T00:23:49.362Z,7.20
2023-03-26T00:26:17.760Z,7.20
2023-03-26T00:28:44.988Z,7.20
2023-03-26T00:31:14.937Z,7.20
2023-03-26T00:33:42.524Z,7.10
2023-03-26T00:36:14.874Z,7.20
2023-03-26T00:38:43.502Z,7.10
2023-03-26T00:41:23.151Z,7.20
2023-03-26T00:43:53.574Z,7.20
2023-03-26T00:46:20.884Z,7.20
2023-03-26T00:48:48.308Z,7.20
2023-03-26T00:51:17.074Z,7.20
2023-03-26T00:53:46.603Z,7.20
2023-03-26T00:56:14.941Z,7.20
2023-03-26T00:58:42.196Z,7.20
2023-03-26T01:01:15.715Z,7.20
2023-03-26T01:03:56.785Z,7.20
2023-03-26T01:06:34.436Z,7.20
2023-03-26T01:09:19.147Z,7.20
2023-03-26T01:11:47.216Z,7.20
2023-03-26T01:14:21.080Z,7.20
2023-03-26T01:16:52.503Z,7.20
2023-03-26T01:19:31.399Z,7.20
2023-03-26T01:21:59.276Z,7.20
2023-03-26T01:24:27.111Z,7.20
2023-03-26T01:27:18.050Z,7.20
2023-03-26T01:29:54.802Z,7.20
2023-03-26T01:32:39.851Z,7.20
2023-03-26T01:35:49.108Z,7.20
2023-03-26T01:38:31.646Z,7.20
2023-03-26T01:41:05.500Z,7.20
2023-03-26T01:43:32.666Z,7.20
2023-03-26T01:46:06.449Z,7.20
2023-03-26T01:48:42.760Z,7.20
2023-03-26T01:51:11.946Z,7.20
2023-03-26T01:53:46.941Z,7.20
2023-03-26T01:56:36.140Z,7.20
2023-03-26T01:59:26.527Z,7.20
2023-03-26T02:02:19.022Z,7.20
2023-03-26T02:04:53.585Z,7.20
2023-03-26T02:07:28.886Z,7.20
2023-03-26T02:10:02.398Z,7.20
2023-03-26T02:12:30.746Z,7.20
2023-03-26T02:15:01.478Z,7.20
2023-03-26T02:17:30.497Z,7.20
2023-03-26T02:19:57.661Z,7.20
2023-03-26T02:22:30.145Z,7.20
2023-03-26T02:24:57.294Z,7.20
2023-03-26T02:27:24.439Z,7.20
2023-03-26T02:29:51.817Z,7.20
2023-03-26T02:32:20.355Z,7.20
2023-03-26T02:34:47.567Z,7.20
2023-03-26T02:37:14.952Z,7.20
2023-03-26T02:39:42.554Z,7.20
2023-03-26T02:42:09.814Z,7.10
2023-03-26T02:44:39.110Z,7.10
2023-03-26T02:47:06.499Z,7.10
2023-03-26T02:49:34.197Z,7.10
2023-03-26T02:52:01.818Z,7.10
2023-03-26T02:54:28.981Z,7.10
2023-03-26T02:56:56.431Z,7.10
2023-03-26T02:59:23.708Z,7.00
2023-03-26T03:01:50.891Z,7.10
2023-03-26T03:04:18.223Z,7.00
2023-03-26T03:06:45.714Z,7.00
2023-03-26T03:09:13.069Z,7.00
2023-03-26T03:11:41.272Z,7.00
2023-03-26T03:14:08.566Z,7.00
2023-03-26T03:16:36.069Z,7.00
2023-03-26T03:19:03.302Z,7.00
2023-03-26T03:21:30.809Z,7.00
2023-03-26T03:24:00.134Z,7.00
2023-03-26T03:26:30.031Z,6.90
2023-03-26T03:28:58.405Z,6.90
2023-03-26T03:31:26.798Z,7.00
2023-03-26T03:33:54.038Z,6.90
2023-03-26T03:36:23.103Z,6.90
2023-03-26T03:38:51.374Z,6.90
2023-03-26T03:41:18.905Z,6.90
2023-03-26T03:43:46.675Z,6.90
2023-03-26T03:46:13.915Z,6.90
2023-03-26T03:48:41.259Z,6.90
2023-03-26T03:51:08.500Z,6.90
2023-03-26T03:53:37.420Z,6.90
2023-03-26T03:56:10.531Z,6.90
2023-03-26T03:58:37.764Z,6.80
2023-03-26T04:01:05.054Z,6.90
2023-03-26T04:03:38.810Z,6.80
2023-03-26T04:06:07.608Z,6.80
2023-03-26T04:08:35.069Z,6.80
2023-03-26T04:11:02.656Z,6.80
2023-03-26T04:13:29.854Z,6.80
2023-03-26T04:15:57.226Z,6.80
2023-03-26T04:18:26.499Z,6.80
2023-03-26T04:20:55.874Z,6.80
2023-03-26T04:23:23.527Z,6.80
2023-03-26T04:25:56.112Z,6.90
2023-03-26T04:28:33.798Z,6.80
2023-03-26T04:31:03.998Z,6.90
2023-03-26T04:33:33.822Z,6.90
2023-03-26T04:36:05.552Z,6.90
2023-03-26T04:38:40.052Z,6.90
2023-03-26T04:41:07.953Z,6.90
2023-03-26T04:43:47.548Z,6.90
2023-03-26T04:46:18.568Z,6.90
2023-03-26T04:48:45.912Z,6.90
2023-03-26T04:51:22.147Z,7.00
2023-03-26T04:53:58.464Z,7.00
2023-03-26T04:56:31.664Z,7.00
2023-03-26T04:59:01.418Z,7.00
2023-03-26T05:01:28.776Z,7.00
2023-03-26T05:03:57.260Z,7.10
2023-03-26T05:06:28.226Z,7.10
2023-03-26T05:08:55.793Z,7.10
2023-03-26T05:11:22.976Z,7.10
2023-03-26T05:13:50.155Z,7.00
2023-03-26T05:16:17.670Z,7.10
2023-03-26T05:18:44.883Z,7.00
2023-03-26T05:21:12.199Z,7.10
2023-03-26T05:23:39.380Z,7.10
2023-03-26T05:26:07.813Z,7.10
2023-03-26T05:28:35.008Z,7.10
2023-03-26T05:31:03.029Z,7.20
2023-03-26T05:33:30.629Z,7.20
2023-03-26T05:36:13.547Z,7.20
2023-03-26T05:38:40.715Z,7.30
2023-03-26T05:41:10.294Z,7.30
2023-03-26T05:43:37.362Z,7.40
2023-03-26T05:46:04.623Z,7.40
2023-03-26T05:48:31.722Z,7.50
2023-03-26T05:50:59.616Z,7.40
2023-03-26T05:53:27.509Z,7.40
2023-03-26T05:56:01.039Z,7.40
2023-03-26T05:58:31.235Z,7.40
2023-03-26T06:01:06.003Z,7.50
2023-03-26T06:03:34.362Z,7.40
2023-03-26T06:06:01.849Z,7.50
2023-03-26T06:08:29.638Z,7.50
2023-03-26T06:11:05.231Z,7.50
2023-03-26T06:13:32.376Z,7.40
2023-03-26T06:15:59.807Z,7.40
2023-03-26T06:18:27.080Z,7.40
2023-03-26T06:20:54.937Z,7.50
2023-03-26T06:23:23.393Z,7.40
2023-03-26T06:25:50.625Z,7.50
2023-03-26T06:28:17.983Z,7.40
2023-03-26T06:30:45.455Z,7.50
2023-03-26T06:33:12.665Z,7.40
2023-03-26T06:35:40.044Z,7.50
2023-03-26T06:38:07.914Z,7.50
2023-03-26T06:40:35.254Z,7.50
2023-03-26T06:43:08.990Z,7.50
2023-03-26T06:45:38.515Z,7.50
2023-03-26T06:48:06.392Z,7.60
2023-03-26T06:50:33.779Z,7.60
2023-03-26T06:53:01.166Z,7.60
2023-03-26T06:55:28.616Z,7.70
2023-03-26T06:57:58.416Z,7.70
2023-03-26T07:00:26.236Z,7.70
2023-03-26T07:02:53.610Z,7.70
2023-03-26T07:05:21.015Z,7.80
2023-03-26T07:07:49.899Z,7.80
2023-03-26T07:10:17.170Z,7.80
2023-03-26T07:12:44.310Z,7.90
2023-03-26T07:15:11.713Z,7.90
2023-03-26T07:17:39.201Z,7.80
2023-03-26T07:20:08.318Z,7.80
2023-03-26T07:22:36.479Z,7.80
2023-03-26T07:25:05.277Z,7.80
2023-03-26T07:27:37.846Z,7.70
2023-03-26T07:30:11.330Z,7.70
2023-03-26T07:32:57.858Z,7.60
2023-03-26T07:35:51.495Z,7.60
2023-03-26T07:38:30.976Z,7.60
2023-03-26T07:41:16.222Z,7.60
2023-03-26T07:44:04.549Z,7.70
2023-03-26T07:46:34.551Z,7.60
2023-03-26T07:49:02.149Z,7.70
2023-03-26T07:51:30.171Z,7.70
2023-03-26T07:54:00.608Z,7.70
2023-03-26T07:56:46.451Z,7.60
2023-03-26T07:59:35.782Z,7.70
2023-03-26T08:02:21.265Z,7.70
2023-03-26T08:04:57.860Z,7.70
2023-03-26T08:08:10.634Z,7.80
2023-03-26T08:11:16.962Z,7.80
2023-03-26T08:13:52.984Z,7.90
2023-03-26T08:16:24.414Z,7.90
2023-03-26T08:19:08.714Z,7.90
2023-03-26T08:21:38.383Z,8.00
2023-03-26T08:24:08.220Z,8.00
2023-03-26T08:27:01.798Z,8.00
2023-03-26T08:30:04.910Z,8.00
2023-03-26T08:32:32.449Z,8.10
2023-03-26T08:35:00.391Z,8.20
2023-03-26T08:37:28.026Z,8.20
2023-03-26T08:39:55.547Z,8.30
2023-03-26T08:43:10.906Z,8.50
2023-03-26T08:45:59.924Z,8.70
2023-03-26T08:48:45.374Z,9.00
2023-03-26T08:51:30.959Z,9.20
2023-03-26T08:54:10.270Z,9.20
2023-03-26T08:56:45.549Z,9.30
2023-03-26T08:59:56.982Z,9.40
2023-03-26T09:03:07.609Z,9.40
2023-03-26T09:06:05.945Z,9.30
2023-03-26T09:08:54.762Z,9.30
2023-03-26T09:11:43.672Z,9.30
2023-03-26T09:14:22.901Z,9.30
2023-03-26T09:17:13.165Z,9.40
2023-03-26T09:19:58.899Z,9.50
2023-03-26T09:22:44.411Z,9.60
2023-03-26T09:25:43.973Z,9.70
2023-03-26T09:29:00.453Z,9.70
2023-03-26T09:31:42.527Z,9.90
2023-03-26T09:34:51.829Z,10.10
2023-03-26T09:37:58.254Z,10.10
2023-03-26T09:40:34.793Z,10.20
2023-03-26T09:43:16.724Z,10.20
2023-03-26T09:46:14.848Z,10.30
2023-03-26T09:48:54.404Z,10.40
2023-03-26T09:51:33.488Z,10.40
2023-03-26T09:54:18.384Z,10.40
2023-03-26T09:57:22.342Z,10.40
2023-03-26T10:00:21.954Z,10.40
2023-03-26T10:03:04.265Z,10.30
2023-03-26T10:05:54.244Z,10.30
2023-03-26T10:08:47.734Z,10.30
2023-03-26T10:11:33.920Z,10.20
2023-03-26T10:14:04.739Z,10.20
2023-03-26T10:16:34.810Z,10.40
2023-03-26T10:19:19.982Z,10.50
2023-03-26T10:22:04.886Z,10.50
2023-03-26T10:24:51.191Z,10.30
2023-03-26T10:27:30.404Z,10.30
2023-03-26T10:30:35.281Z,10.50
2023-03-26T10:33:09.976Z,10.90
2023-03-26T10:36:26.955Z,11.30
2023-03-26T10:39:37.203Z,11.70
2023-03-26T10:42:35.544Z,11.80
2023-03-26T10:45:27.448Z,11.70
2023-03-26T10:48:17.223Z,11.50
2023-03-26T10:51:09.880Z,11.20
2023-03-26T10:53:39.898Z,10.90
2023-03-26T10:56:23.090Z,10.80
2023-03-26T10:58:50.641Z,10.90
2023-03-26T11:01:25.158Z,10.90
2023-03-26T11:03:55.193Z,11.00
2023-03-26T11:06:44.834Z,11.10
2023-03-26T11:09:36.557Z,11.20
2023-03-26T11:12:29.343Z,11.20
2023-03-26T11:15:14.826Z,11.50
2023-03-26T11:18:26.637Z,11.70
2023-03-26T11:21:39.121Z,11.90
2023-03-26T11:24:32.873Z,11.90
2023-03-26T11:27:14.873Z,12.10
2023-03-26T11:29:57.026Z,11.80
2023-03-26T11:32:53.688Z,11.50
2023-03-26T11:35:40.955Z,11.00
2023-03-26T11:38:38.066Z,10.40
2023-03-26T11:41:23.075Z,9.80
2023-03-26T11:44:17.384Z,9.30
2023-03-26T11:46:46.889Z,8.60
2023-03-26T11:49:18.717Z,8.20
2023-03-26T11:51:49.126Z,8.00
2023-03-26T11:54:18.040Z,7.90
2023-03-26T11:57:22.594Z,7.90
2023-03-26T12:00:23.556Z,7.80
2023-03-26T12:02:57.715Z,7.80
2023-03-26T12:05:27.669Z,7.80
2023-03-26T12:07:58.840Z,7.70
2023-03-26T12:10:43.052Z,7.60
2023-03-26T12:13:28.411Z,7.50
2023-03-26T12:16:19.441Z,7.50
2023-03-26T12:18:58.174Z,7.60
2023-03-26T12:21:25.365Z,7.60
2023-03-26T12:24:05.517Z,7.80
2023-03-26T12:26:39.813Z,8.10
2023-03-26T12:29:19.220Z,8.20
2023-03-26T12:31:47.222Z,8.30
2023-03-26T12:34:17.672Z,8.40
2023-03-26T12:36:53.623Z,8.80
2023-03-26T12:40:12.009Z,9.20
2023-03-26T12:44:45.072Z,9.50
2023-03-26T12:45:24.011Z,9.90
2023-03-26T12:48:01.836Z,10.40
2023-03-26T12:51:01.127Z,10.70
2023-03-26T12:53:49.119Z,11.00
2023-03-26T12:56:20.106Z,11.10
2023-03-26T12:59:02.576Z,11.50
2023-03-26T13:01:35.782Z,11.70
2023-03-26T13:04:24.408Z,11.80
2023-03-26T13:07:11.022Z,11.70
2023-03-26T13:09:57.574Z,11.50
2023-03-26T13:12:53.066Z,11.40
2023-03-26T13:15:25.716Z,11.40
2023-03-26T13:18:04.382Z,11.50
2023-03-26T13:20:49.331Z,11.80
2023-03-26T13:23:28.513Z,12.20
2023-03-26T13:26:03.726Z,12.40
2023-03-26T13:29:06.335Z,12.60
2023-03-26T13:31:59.189Z,12.90
2023-03-26T13:34:59.082Z,13.10
2023-03-26T13:37:38.888Z,13.30
2023-03-26T13:40:25.785Z,13.50
2023-03-26T13:43:05.079Z,13.80
2023-03-26T13:45:53.374Z,14.10
2023-03-26T13:48:26.385Z,14.30
2023-03-26T13:51:16.160Z,14.10
2023-03-26T13:53:59.209Z,13.70
2023-03-26T13:56:33.697Z,13.30
2023-03-26T13:59:22.208Z,13.00
2023-03-26T14:01:57.314Z,12.90
2023-03-26T14:04:39.705Z,12.90
2023-03-26T14:07:23.582Z,12.80
2023-03-26T14:10:08.074Z,12.50
2023-03-26T14:12:52.019Z,12.30
2023-03-26T14:15:44.771Z,12.40
2023-03-26T14:18:35.724Z,12.50
2023-03-26T14:21:24.318Z,12.50
2023-03-26T14:24:22.068Z,12.50
2023-03-26T14:26:49.243Z,12.40
2023-03-26T14:29:41.114Z,12.50
2023-03-26T14:32:58.936Z,12.40
2023-03-26T14:35:51.772Z,12.10
2023-03-26T14:38:28.793Z,11.80
2023-03-26T14:41:25.018Z,11.60
2023-03-26T14:44:04.542Z,11.30
2023-03-26T14:46:58.218Z,11.00
2023-03-26T14:50:04.381Z,10.70
2023-03-26T14:52:48.882Z,10.50
2023-03-26T14:55:53.564Z,10.20
2023-03-26T14:59:01.992Z,10.10
2023-03-26T15:02:04.677Z,10.00
2023-03-26T15:04:56.969Z,9.90
2023-03-26T15:07:39.543Z,9.90
2023-03-26T15:10:41.146Z,9.90
2023-03-26T15:13:30.165Z,9.80
2023-03-26T15:16:06.138Z,9.80
2023-03-26T15:18:51.601Z,9.90
2023-03-26T15:21:43.655Z,9.80
2023-03-26T15:24:28.662Z,9.70
2023-03-26T15:27:27.013Z,9.60
2023-03-26T15:30:26.823Z,9.50
2023-03-26T15:33:17.314Z,9.50
2023-03-26T15:35:50.429Z,9.40
2023-03-26T15:38:39.088Z,9.40
2023-03-26T15:41:25.417Z,9.40
2023-03-26T15:44:23.629Z,9.20
2023-03-26T15:47:13.585Z,9.00
2023-03-26T15:49:45.003Z,9.00
2023-03-26T15:52:49.273Z,8.90
2023-03-26T15:55:16.627Z,8.80
2023-03-26T15:58:08.074Z,8.80
2023-03-26T16:00:38.514Z,8.70
2023-03-26T16:03:17.674Z,8.70
2023-03-26T16:06:28.450Z,8.70
2023-03-26T16:09:03.565Z,8.70
2023-03-26T16:11:54.353Z,8.70
2023-03-26T16:14:36.549Z,8.70
2023-03-26T16:17:06.772Z,8.60
2023-03-26T16:20:14.923Z,8.60
2023-03-26T16:23:01.845Z,8.50
2023-03-26T16:25:32.908Z,8.40
2023-03-26T16:28:28.161Z,8.40
2023-03-26T16:31:36.918Z,8.30
2023-03-26T16:34:09.255Z,8.30
2023-03-26T16:36:54.900Z,8.20
2023-03-26T16:39:44.371Z,8.20
2023-03-26T16:42:38.703Z,8.10
2023-03-26T16:45:37.468Z,8.00
2023-03-26T16:48:26.712Z,7.90
2023-03-26T16:51:18.852Z,7.80
2023-03-26T16:54:10.084Z,7.70
2023-03-26T16:57:08.031Z,7.60
2023-03-26T17:00:07.366Z,7.50
2023-03-26T17:02:55.478Z,7.40
2023-03-26T17:05:37.988Z,7.40
2023-03-26T17:08:36.570Z,7.30
2023-03-26T17:11:22.907Z,7.20
2023-03-26T17:14:08.569Z,7.20
2023-03-26T17:16:46.124Z,7.10
2023-03-26T17:19:39.638Z,7.10
2023-03-26T17:22:15.485Z,7.00
2023-03-26T17:24:56.504Z,6.90
2023-03-26T17:27:34.405Z,6.90
2023-03-26T17:30:21.870Z,6.90
2023-03-26T17:32:59.024Z,6.90
2023-03-26T17:35:49.316Z,6.90
2023-03-26T17:38:22.674Z,6.90
2023-03-26T17:40:58.968Z,6.90
2023-03-26T17:43:50.539Z,6.90
2023-03-26T17:46:48.377Z,6.90
2023-03-26T17:49:22.434Z,6.90
2023-03-26T17:51:59.689Z,6.90
2023-03-26T17:54:46.760Z,6.90
2023-03-26T17:57:18.948Z,6.90
2023-03-26T17:59:47.425Z,6.80
2023-03-26T18:02:24.166Z,6.90
2023-03-26T18:04:53.792Z,6.80
2023-03-26T18:07:51.285Z,6.80
2023-03-26T18:10:33.602Z,6.80
2023-03-26T18:13:43.030Z,6.80
2023-03-26T18:16:24.516Z,6.80
2023-03-26T18:18:59.297Z,6.80
2023-03-26T18:21:40.301Z,6.80
2023-03-26T18:24:14.039Z,6.80
2023-03-26T18:27:04.894Z,6.80
2023-03-26T18:29:36.702Z,6.80
2023-03-26T18:32:24.144Z,6.70
2023-03-26T18:34:57.121Z,6.80
2023-03-26T18:37:28.150Z,6.70
2023-03-26T18:40:22.314Z,6.70
2023-03-26T18:42:56.062Z,6.70
2023-03-26T18:45:37.619Z,6.70
2023-03-26T18:48:11.681Z,6.70
2023-03-26T18:50:42.342Z,6.60
2023-03-26T18:53:15.500Z,6.60
2023-03-26T18:55:44.817Z,6.60
2023-03-26T18:58:33.007Z,6.60
2023-03-26T19:01:01.604Z,6.60
2023-03-26T19:03:32.263Z,6.60
2023-03-26T19:06:02.612Z,6.60
2023-03-26T19:08:30.715Z,6.60
2023-03-26T19:10:58.199Z,6.60
2023-03-26T19:13:28.311Z,6.50
2023-03-26T19:15:56.963Z,6.50
2023-03-26T19:18:27.144Z,6.50
2023-03-26T19:21:03.214Z,6.50
2023-03-26T19:23:43.200Z,6.50
2023-03-26T19:26:11.681Z,6.50
2023-03-26T19:28:53.470Z,6.50
2023-03-26T19:31:26.952Z,6.50
2023-03-26T19:33:59.746Z,6.50
2023-03-26T19:36:35.025Z,6.40
2023-03-26T19:39:05.225Z,6.40
2023-03-26T19:41:39.283Z,6.40
2023-03-26T19:44:21.567Z,6.40
2023-03-26T19:46:53.983Z,6.40
2023-03-26T19:50:02.085Z,6.40
2023-03-26T19:52:36.035Z,6.30
2023-03-26T19:55:24.251Z,6.30
2023-03-26T19:57:51.955Z,6.20
2023-03-26T20:00:19.422Z,6.20
2023-03-26T20:02:47.442Z,6.20
2023-03-26T20:05:26.836Z,6.20
2023-03-26T20:07:57.535Z,6.20
2023-03-26T20:10:24.872Z,6.10
2023-03-26T20:12:52.192Z,6.20
2023-03-26T20:15:25.509Z,6.10
2023-03-26T20:17:54.759Z,6.10
2023-03-26T20:20:24.935Z,6.10
2023-03-26T20:22:54.147Z,6.10
2023-03-26T20:25:28.811Z,6.10
2023-03-26T20:27:59.176Z,6.10
2023-03-26T20:30:37.462Z,6.10
2023-03-26T20:33:12.649Z,6.10
2023-03-26T20:35:41.292Z,6.10
2023-03-26T20:38:09.992Z,6.10
2023-03-26T20:40:38.626Z,6.10
2023-03-26T20:43:12.039Z,6.10
2023-03-26T20:45:40.175Z,6.10
2023-03-26T20:48:10.462Z,6.10
2023-03-26T20:53:14.198Z,6.10
2023-03-26T20:55:44.244Z,6.00
2023-03-26T20:58:17.944Z,6.10
2023-03-26T21:01:01.451Z,6.10
2023-03-26T21:03:28.771Z,6.10
2023-03-26T21:06:00.432Z,6.10
2023-03-26T21:08:34.303Z,6.00
2023-03-26T21:11:02.351Z,6.10
2023-03-26T21:13:32.136Z,6.10
2023-03-26T21:16:00.921Z,6.10
2023-03-26T21:18:29.085Z,6.10
2023-03-26T21:21:22.894Z,6.00
2023-03-26T21:24:00.399Z,6.00
2023-03-26T21:26:32.705Z,6.00
2023-03-26T21:29:01.118Z,6.00
2023-03-26T21:31:31.067Z,6.00
2023-03-26T21:33:58.703Z,6.00
2023-03-26T21:36:26.301Z,6.00
2023-03-26T21:38:54.982Z,5.90
2023-03-26T21:41:44.055Z,5.90
2023-03-26T21:44:11.996Z,5.90
2023-03-26T21:46:42.508Z,5.90
2023-03-26T21:49:11.186Z,5.90
2023-03-26T21:51:38.706Z,5.90
2023-03-26T21:54:24.216Z,5.90
2023-03-26T21:57:10.156Z,5.80
2023-03-26T22:00:02.361Z,5.80
2023-03-26T22:02:43.853Z,5.80
2023-03-26T22:05:21.277Z,5.80
2023-03-26T22:08:03.241Z,5.70
2023-03-26T22:10:32.185Z,5.70
2023-03-26T22:12:59.505Z,5.70
2023-03-26T22:15:30.819Z,5.70
2023-03-26T22:18:04.286Z,5.70
2023-03-26T22:20:32.084Z,5.70
2023-03-26T22:23:00.682Z,5.60
2023-03-26T22:25:27.989Z,5.60
2023-03-26T22:27:55.410Z,5.60
2023-03-26T22:30:22.750Z,5.60
2023-03-26T22:32:50.496Z,5.60
2023-03-26T22:35:18.006Z,5.60
2023-03-26T22:37:45.790Z,5.60
2023-03-26T22:40:14.412Z,5.60
2023-03-26T22:42:42.263Z,5.60
2023-03-26T22:45:10.438Z,5.60
2023-03-26T22:47:38.377Z,5.60
2023-03-26T22:50:10.130Z,5.60
2023-03-26T22:52:39.111Z,5.60
2023-03-26T22:55:07.385Z,5.60
2023-03-26T22:57:34.873Z,5.60
2023-03-26T23:00:14.398Z,5.60
2023-03-26T23:02:41.905Z,5.60
2023-03-26T23:05:09.542Z,5.60
2023-03-26T23:07:37.755Z,5.60
2023-03-26T23:10:06.355Z,5.60
2023-03-26T23:12:33.689Z,5.60
2023-03-26T23:15:05.290Z,5.60
2023-03-26T23:17:34.412Z,5.60
2023-03-26T23:20:15.547Z,5.60
2023-03-26T23:22:43.916Z,5.60
2023-03-26T23:25:12.177Z,5.60
2023-03-26T23:27:40.437Z,5.60
2023-03-26T23:30:08.410Z,5.50
2023-03-26T23:32:38.079Z,5.60
2023-03-26T23:35:06.291Z,5.60
2023-03-26T23:37:35.347Z,5.50
2023-03-26T23:40:07.654Z,5.50
2023-03-26T23:42:35.097Z,5.50
2023-03-26T23:45:02.290Z,5.50
2023-03-26T23:47:34.892Z,5.50
2023-03-26T23:50:02.699Z,5.50
2023-03-26T23:52:31.018Z,5.50
2023-03-26T23:55:01.311Z,5.50
2023-03-26T23:57:29.279Z,5.50
2023-03-26T23:59:56.702Z,5.50
